sensor_id;sensor_type;location;lat;lon;timestamp;P1;durP1;ratioP1;P2;durP2;ratioP2
9228;SDS011;4649;42.644;23.284;2023-07-16T03:53:50;9.83;;;9.07;;
9228;SDS011;4649;42.644;23.284;2023-07-16T03:56:22;10.90;;;8.53;;
9228;SDS011;4649;42.644;23.284;2023-07-16T03:58:48;18.53;;;9.77;;
9228;SDS011;4649;42.644;23.284;2023-07-16T04:01:15;16.37;;;9.73;;
9228;SDS011;4649;42.644;23.284;2023-07-16T04:03:45;9.67;;;8.70;;
9228;SDS011;4649;42.644;23.284;2023-07-16T04:09:18;10.20;;;9.30;;
9228;SDS011;4649;42.644;23.284;2023-07-16T04:11:46;10.00;;;8.97;;
9228;SDS011;4649;42.644;23.284;2023-07-16T04:14:32;9.17;;;8.37;;
9228;SDS011;4649;42.644;23.284;2023-07-16T04:17:02;10.90;;;8.27;;
9228;SDS011;4649;42.644;23.284;2023-07-16T04:19:29;7.90;;;7.27;;
9228;SDS011;4649;42.644;23.284;2023-07-16T04:22:04;7.73;;;7.13;;
9228;SDS011;4649;42.644;23.284;2023-07-16T04:24:37;9.27;;;7.03;;
9228;SDS011;4649;42.644;23.284;2023-07-16T04:27:09;7.23;;;6.60;;
9228;SDS011;4649;42.644;23.284;2023-07-16T04:29:39;7.63;;;6.80;;
9228;SDS011;4649;42.644;23.284;2023-07-16T04:43:18;8.07;;;6.93;;
9228;SDS011;4649;42.644;23.284;2023-07-16T04:45:49;8.50;;;7.60;;
9228;SDS011;4649;42.644;23.284;2023-07-16T04:48:19;7.10;;;6.50;;
9228;SDS011;4649;42.644;23.284;2023-07-16T04:50:48;7.23;;;6.47;;
9228;SDS011;4649;42.644;23.284;2023-07-16T04:53:22;6.73;;;6.27;;
9228;SDS011;4649;42.644;23.284;2023-07-16T04:56:03;9.07;;;5.90;;
9228;SDS011;4649;42.644;23.284;2023-07-16T04:58:37;7.23;;;6.13;;
9228;SDS011;4649;42.644;23.284;2023-07-16T05:01:05;8.90;;;6.73;;
9228;SDS011;4649;42.644;23.284;2023-07-16T05:03:34;6.60;;;6.10;;
9228;SDS011;4649;42.644;23.284;2023-07-16T05:06:02;7.37;;;6.30;;
9228;SDS011;4649;42.644;23.284;2023-07-16T05:08:30;5.83;;;5.50;;
9228;SDS011;4649;42.644;23.284;2023-07-16T05:10:57;6.57;;;5.97;;
9228;SDS011;4649;42.644;23.284;2023-07-16T05:13:26;8.30;;;5.87;;
9228;SDS011;4649;42.644;23.284;2023-07-16T05:15:55;6.00;;;5.50;;
9228;SDS011;4649;42.644;23.284;2023-07-16T05:18:23;5.90;;;5.60;;
9228;SDS011;4649;42.644;23.284;2023-07-16T05:20:51;6.00;;;5.60;;
9228;SDS011;4649;42.644;23.284;2023-07-16T05:23:18;8.30;;;5.57;;
9228;SDS011;4649;42.644;23.284;2023-07-16T05:25:45;7.03;;;6.10;;
9228;SDS011;4649;42.644;23.284;2023-07-16T05:28:15;7.00;;;6.27;;
9228;SDS011;4649;42.644;23.284;2023-07-16T05:30:43;7.73;;;5.83;;
9228;SDS011;4649;42.644;23.284;2023-07-16T05:33:13;15.93;;;6.55;;
9228;SDS011;4649;42.644;23.284;2023-07-16T05:35:40;7.17;;;6.30;;
9228;SDS011;4649;42.644;23.284;2023-07-16T05:38:08;6.25;;;5.85;;
9228;SDS011;4649;42.644;23.284;2023-07-16T05:40:36;6.37;;;5.80;;
9228;SDS011;4649;42.644;23.284;2023-07-16T05:43:04;8.43;;;5.13;;
9228;SDS011;4649;42.644;23.284;2023-07-16T05:45:31;6.90;;;5.37;;
9228;SDS011;4649;42.644;23.284;2023-07-16T05:48:00;13.10;;;5.50;;
9228;SDS011;4649;42.644;23.284;2023-07-16T05:50:33;4.85;;;4.45;;
9228;SDS011;4649;42.644;23.284;2023-07-16T05:53:10;8.70;;;5.13;;
9228;SDS011;4649;42.644;23.284;2023-07-16T05:55:39;5.43;;;5.00;;
9228;SDS011;4649;42.644;23.284;2023-07-16T05:58:10;11.38;;;5.20;;
9228;SDS011;4649;42.644;23.284;2023-07-16T06:00:48;6.15;;;5.05;;
9228;SDS011;4649;42.644;23.284;2023-07-16T06:03:18;7.10;;;5.18;;
9228;SDS011;4649;42.644;23.284;2023-07-16T06:05:52;4.65;;;4.35;;
9228;SDS011;4649;42.644;23.284;2023-07-16T06:08:39;6.13;;;4.63;;
9228;SDS011;4649;42.644;23.284;2023-07-16T06:11:45;4.22;;;4.03;;
9228;SDS011;4649;42.644;23.284;2023-07-16T06:14:56;6.07;;;5.15;;
9228;SDS011;4649;42.644;23.284;2023-07-16T08:10:02;12.93;;;5.30;;
9228;SDS011;4649;42.644;23.284;2023-07-16T08:15:06;5.50;;;5.00;;
9228;SDS011;4649;42.644;23.284;2023-07-16T08:27:35;5.60;;;5.20;;
9228;SDS011;4649;42.644;23.284;2023-07-16T08:33:04;73.03;;;10.82;;
9228;SDS011;4649;42.644;23.284;2023-07-16T08:35:50;34.85;;;6.70;;
9228;SDS011;4649;42.644;23.284;2023-07-16T08:38:32;5.20;;;4.80;;
9228;SDS011;4649;42.644;23.284;2023-07-16T08:41:00;10.52;;;4.70;;
9228;SDS011;4649;42.644;23.284;2023-07-16T08:43:35;5.53;;;5.00;;
9228;SDS011;4649;42.644;23.284;2023-07-16T08:46:30;5.10;;;4.70;;
9228;SDS011;4649;42.644;23.284;2023-07-16T08:52:08;5.50;;;4.95;;
9228;SDS011;4649;42.644;23.284;2023-07-16T08:55:15;8.00;;;5.60;;
9228;SDS011;4649;42.644;23.284;2023-07-16T08:58:01;6.25;;;5.65;;
9228;SDS011;4649;42.644;23.284;2023-07-16T09:00:33;6.72;;;5.53;;
9228;SDS011;4649;42.644;23.284;2023-07-16T09:03:27;5.13;;;4.82;;
9228;SDS011;4649;42.644;23.284;2023-07-16T09:06:18;4.65;;;4.38;;
9228;SDS011;4649;42.644;23.284;2023-07-16T09:15:25;7.75;;;4.88;;
9228;SDS011;4649;42.644;23.284;2023-07-16T09:31:13;5.80;;;5.40;;
9228;SDS011;4649;42.644;23.284;2023-07-16T09:36:22;5.45;;;5.13;;
9228;SDS011;4649;42.644;23.284;2023-07-16T09:38:51;6.78;;;5.20;;
9228;SDS011;4649;42.644;23.284;2023-07-16T09:41:20;7.38;;;5.55;;
9228;SDS011;4649;42.644;23.284;2023-07-16T09:43:49;6.55;;;5.95;;
9228;SDS011;4649;42.644;23.284;2023-07-16T09:46:16;10.85;;;5.88;;
9228;SDS011;4649;42.644;23.284;2023-07-16T09:48:43;7.10;;;5.55;;
9228;SDS011;4649;42.644;23.284;2023-07-16T09:51:11;6.38;;;5.85;;
9228;SDS011;4649;42.644;23.284;2023-07-16T09:53:40;5.90;;;5.32;;
9228;SDS011;4649;42.644;23.284;2023-07-16T09:56:10;5.63;;;5.22;;
9228;SDS011;4649;42.644;23.284;2023-07-16T09:58:39;7.55;;;5.20;;
9228;SDS011;4649;42.644;23.284;2023-07-16T10:01:09;6.15;;;5.43;;
9228;SDS011;4649;42.644;23.284;2023-07-16T10:03:37;8.57;;;6.32;;
9228;SDS011;4649;42.644;23.284;2023-07-16T10:06:16;8.38;;;5.88;;
9228;SDS011;4649;42.644;23.284;2023-07-16T10:08:48;7.35;;;5.95;;
9228;SDS011;4649;42.644;23.284;2023-07-16T10:11:17;6.35;;;5.85;;
9228;SDS011;4649;42.644;23.284;2023-07-16T10:13:48;7.28;;;6.03;;
9228;SDS011;4649;42.644;23.284;2023-07-16T10:16:20;5.88;;;5.38;;
9228;SDS011;4649;42.644;23.284;2023-07-16T10:18:50;7.65;;;5.80;;
9228;SDS011;4649;42.644;23.284;2023-07-16T10:21:22;11.18;;;6.35;;
9228;SDS011;4649;42.644;23.284;2023-07-16T10:23:56;14.98;;;5.97;;
9228;SDS011;4649;42.644;23.284;2023-07-16T10:26:26;7.70;;;6.20;;
9228;SDS011;4649;42.644;23.284;2023-07-16T10:28:54;6.88;;;5.85;;
9228;SDS011;4649;42.644;23.284;2023-07-16T10:31:24;7.00;;;6.07;;
9228;SDS011;4649;42.644;23.284;2023-07-16T10:34:02;8.40;;;6.38;;
9228;SDS011;4649;42.644;23.284;2023-07-16T10:36:38;6.07;;;5.78;;
9228;SDS011;4649;42.644;23.284;2023-07-16T10:39:15;8.30;;;6.35;;
9228;SDS011;4649;42.644;23.284;2023-07-16T10:41:45;7.97;;;5.97;;
9228;SDS011;4649;42.644;23.284;2023-07-16T10:44:13;6.95;;;6.43;;
9228;SDS011;4649;42.644;23.284;2023-07-16T10:46:42;7.18;;;6.32;;
9228;SDS011;4649;42.644;23.284;2023-07-16T10:49:09;7.63;;;5.95;;
9228;SDS011;4649;42.644;23.284;2023-07-16T10:51:36;7.40;;;6.10;;
9228;SDS011;4649;42.644;23.284;2023-07-16T10:54:03;6.78;;;6.15;;
9228;SDS011;4649;42.644;23.284;2023-07-16T10:56:33;11.15;;;6.80;;
9228;SDS011;4649;42.644;23.284;2023-07-16T10:59:02;6.68;;;6.18;;
9228;SDS011;4649;42.644;23.284;2023-07-16T11:01:29;6.75;;;6.10;;
9228;SDS011;4649;42.644;23.284;2023-07-16T11:04:01;7.72;;;5.75;;
9228;SDS011;4649;42.644;23.284;2023-07-16T11:06:28;7.47;;;5.65;;
9228;SDS011;4649;42.644;23.284;2023-07-16T11:09:05;8.18;;;5.82;;
9228;SDS011;4649;42.644;23.284;2023-07-16T11:11:32;9.00;;;6.40;;
9228;SDS011;4649;42.644;23.284;2023-07-16T11:13:59;8.30;;;6.07;;
9228;SDS011;4649;42.644;23.284;2023-07-16T11:16:26;7.00;;;6.50;;
9228;SDS011;4649;42.644;23.284;2023-07-16T11:18:53;8.45;;;6.13;;
9228;SDS011;4649;42.644;23.284;2023-07-16T11:21:22;6.63;;;6.07;;
9228;SDS011;4649;42.644;23.284;2023-07-16T11:23:49;7.18;;;5.25;;
9228;SDS011;4649;42.644;23.284;2023-07-16T11:26:16;7.32;;;6.60;;
9228;SDS011;4649;42.644;23.284;2023-07-16T11:28:43;10.05;;;5.70;;
9228;SDS011;4649;42.644;23.284;2023-07-16T11:31:12;10.63;;;6.00;;
9228;SDS011;4649;42.644;23.284;2023-07-16T11:33:43;7.68;;;6.10;;
9228;SDS011;4649;42.644;23.284;2023-07-16T11:36:17;9.30;;;5.78;;
9228;SDS011;4649;42.644;23.284;2023-07-16T11:39:04;6.93;;;6.15;;
9228;SDS011;4649;42.644;23.284;2023-07-16T11:41:40;6.32;;;5.70;;
9228;SDS011;4649;42.644;23.284;2023-07-16T11:44:11;7.03;;;6.43;;
9228;SDS011;4649;42.644;23.284;2023-07-16T11:46:38;6.97;;;5.82;;
9228;SDS011;4649;42.644;23.284;2023-07-16T11:49:05;14.48;;;6.30;;
9228;SDS011;4649;42.644;23.284;2023-07-16T11:51:34;6.15;;;5.65;;
9228;SDS011;4649;42.644;23.284;2023-07-16T11:56:51;7.20;;;6.32;;
9228;SDS011;4649;42.644;23.284;2023-07-16T11:59:20;8.75;;;5.63;;
9228;SDS011;4649;42.644;23.284;2023-07-16T12:01:48;6.43;;;5.65;;
9228;SDS011;4649;42.644;23.284;2023-07-16T12:04:16;5.72;;;5.32;;
9228;SDS011;4649;42.644;23.284;2023-07-16T12:06:43;6.22;;;5.20;;
9228;SDS011;4649;42.644;23.284;2023-07-16T12:09:10;6.40;;;5.22;;
9228;SDS011;4649;42.644;23.284;2023-07-16T12:11:41;9.30;;;5.63;;
9228;SDS011;4649;42.644;23.284;2023-07-16T12:14:10;5.78;;;5.30;;
9228;SDS011;4649;42.644;23.284;2023-07-16T12:16:39;7.97;;;5.60;;
9228;SDS011;4649;42.644;23.284;2023-07-16T12:19:07;8.20;;;5.65;;
9228;SDS011;4649;42.644;23.284;2023-07-16T12:21:36;6.80;;;5.70;;
9228;SDS011;4649;42.644;23.284;2023-07-16T12:24:15;6.00;;;5.60;;
9228;SDS011;4649;42.644;23.284;2023-07-16T12:29:59;7.03;;;6.35;;
9228;SDS011;4649;42.644;23.284;2023-07-16T12:32:27;9.27;;;5.20;;
9228;SDS011;4649;42.644;23.284;2023-07-16T12:34:54;8.77;;;6.05;;
9228;SDS011;4649;42.644;23.284;2023-07-16T12:40:42;9.52;;;5.80;;
9228;SDS011;4649;42.644;23.284;2023-07-16T12:43:42;7.20;;;6.53;;
9228;SDS011;4649;42.644;23.284;2023-07-16T12:49:42;6.90;;;5.57;;
9228;SDS011;4649;42.644;23.284;2023-07-16T12:55:34;6.00;;;5.50;;
9228;SDS011;4649;42.644;23.284;2023-07-16T12:58:19;7.20;;;5.25;;
9228;SDS011;4649;42.644;23.284;2023-07-16T13:01:00;9.23;;;5.63;;
9228;SDS011;4649;42.644;23.284;2023-07-16T13:03:27;8.80;;;5.78;;
9228;SDS011;4649;42.644;23.284;2023-07-16T13:05:56;7.47;;;5.38;;
9228;SDS011;4649;42.644;23.284;2023-07-16T13:08:24;5.43;;;4.93;;
9228;SDS011;4649;42.644;23.284;2023-07-16T13:10:51;8.32;;;5.60;;
9228;SDS011;4649;42.644;23.284;2023-07-16T13:13:19;6.15;;;5.55;;
9228;SDS011;4649;42.644;23.284;2023-07-16T13:15:48;5.88;;;5.30;;
9228;SDS011;4649;42.644;23.284;2023-07-16T13:18:15;5.30;;;4.82;;
9228;SDS011;4649;42.644;23.284;2023-07-16T13:20:42;5.32;;;4.85;;
9228;SDS011;4649;42.644;23.284;2023-07-16T13:23:12;5.40;;;5.00;;
9228;SDS011;4649;42.644;23.284;2023-07-16T13:25:41;6.38;;;4.65;;
9228;SDS011;4649;42.644;23.284;2023-07-16T13:28:08;5.20;;;4.53;;
9228;SDS011;4649;42.644;23.284;2023-07-16T13:30:35;7.95;;;5.03;;
9228;SDS011;4649;42.644;23.284;2023-07-16T13:36:15;5.93;;;5.07;;
9228;SDS011;4649;42.644;23.284;2023-07-16T13:45:14;6.00;;;5.47;;
9228;SDS011;4649;42.644;23.284;2023-07-16T13:47:55;5.47;;;5.10;;
9228;SDS011;4649;42.644;23.284;2023-07-16T13:50:40;8.10;;;5.13;;
9228;SDS011;4649;42.644;23.284;2023-07-16T13:53:13;10.20;;;5.70;;
9228;SDS011;4649;42.644;23.284;2023-07-16T13:55:41;5.50;;;5.10;;
9228;SDS011;4649;42.644;23.284;2023-07-16T14:00:58;6.03;;;5.07;;
9228;SDS011;4649;42.644;23.284;2023-07-16T14:03:26;5.57;;;5.28;;
9228;SDS011;4649;42.644;23.284;2023-07-16T14:05:54;6.78;;;5.57;;
9228;SDS011;4649;42.644;23.284;2023-07-16T14:08:24;6.30;;;5.45;;
9228;SDS011;4649;42.644;23.284;2023-07-16T14:10:53;6.88;;;5.32;;
9228;SDS011;4649;42.644;23.284;2023-07-16T14:13:20;8.00;;;5.47;;
9228;SDS011;4649;42.644;23.284;2023-07-16T14:15:49;6.22;;;5.63;;
9228;SDS011;4649;42.644;23.284;2023-07-16T14:18:16;14.45;;;6.03;;
9228;SDS011;4649;42.644;23.284;2023-07-16T14:20:43;6.13;;;5.72;;
9228;SDS011;4649;42.644;23.284;2023-07-16T14:23:10;5.35;;;5.05;;
9228;SDS011;4649;42.644;23.284;2023-07-16T14:25:37;7.90;;;5.65;;
9228;SDS011;4649;42.644;23.284;2023-07-16T14:28:04;5.45;;;4.97;;
9228;SDS011;4649;42.644;23.284;2023-07-16T14:30:36;6.18;;;5.85;;
9228;SDS011;4649;42.644;23.284;2023-07-16T14:33:18;5.68;;;5.28;;
9228;SDS011;4649;42.644;23.284;2023-07-16T14:36:00;10.05;;;6.22;;
9228;SDS011;4649;42.644;23.284;2023-07-16T14:41:25;7.38;;;5.90;;
9228;SDS011;4649;42.644;23.284;2023-07-16T14:47:24;6.05;;;5.50;;
9228;SDS011;4649;42.644;23.284;2023-07-16T14:50:19;6.63;;;6.05;;
9228;SDS011;4649;42.644;23.284;2023-07-16T14:53:00;6.22;;;5.63;;
9228;SDS011;4649;42.644;23.284;2023-07-16T14:55:29;6.53;;;5.97;;
9228;SDS011;4649;42.644;23.284;2023-07-16T15:09:31;6.78;;;6.10;;
9228;SDS011;4649;42.644;23.284;2023-07-16T15:12:00;6.35;;;5.82;;
9228;SDS011;4649;42.644;23.284;2023-07-16T15:15:22;12.32;;;6.35;;
9228;SDS011;4649;42.644;23.284;2023-07-16T15:17:50;7.55;;;5.47;;
9228;SDS011;4649;42.644;23.284;2023-07-16T15:23:22;6.30;;;5.88;;
9228;SDS011;4649;42.644;23.284;2023-07-16T15:31:58;5.72;;;5.38;;
9228;SDS011;4649;42.644;23.284;2023-07-16T15:34:26;6.75;;;6.18;;
9228;SDS011;4649;42.644;23.284;2023-07-16T15:36:55;7.75;;;6.80;;
9228;SDS011;4649;42.644;23.284;2023-07-16T15:39:27;6.10;;;5.72;;
9228;SDS011;4649;42.644;23.284;2023-07-16T15:42:05;7.05;;;6.60;;
9228;SDS011;4649;42.644;23.284;2023-07-16T15:54:23;7.30;;;6.50;;
9228;SDS011;4649;42.644;23.284;2023-07-16T15:57:06;6.38;;;5.57;;
9228;SDS011;4649;42.644;23.284;2023-07-16T15:59:48;6.43;;;6.03;;
9228;SDS011;4649;42.644;23.284;2023-07-16T16:02:31;6.88;;;5.57;;
9228;SDS011;4649;42.644;23.284;2023-07-16T16:05:17;10.50;;;6.60;;
9228;SDS011;4649;42.644;23.284;2023-07-16T16:10:57;7.03;;;6.43;;
9228;SDS011;4649;42.644;23.284;2023-07-16T16:13:38;7.80;;;6.22;;
9228;SDS011;4649;42.644;23.284;2023-07-16T16:16:10;6.72;;;6.15;;
9228;SDS011;4649;42.644;23.284;2023-07-16T16:18:43;12.02;;;7.18;;
9228;SDS011;4649;42.644;23.284;2023-07-16T16:21:12;11.88;;;7.60;;
9228;SDS011;4649;42.644;23.284;2023-07-16T16:23:44;7.50;;;6.80;;
9228;SDS011;4649;42.644;23.284;2023-07-16T16:26:19;8.55;;;7.90;;
9228;SDS011;4649;42.644;23.284;2023-07-16T16:28:57;8.30;;;7.70;;
9228;SDS011;4649;42.644;23.284;2023-07-16T16:31:27;8.85;;;7.47;;
9228;SDS011;4649;42.644;23.284;2023-07-16T16:33:57;10.25;;;7.53;;
9228;SDS011;4649;42.644;23.284;2023-07-16T16:36:24;8.05;;;7.45;;
9228;SDS011;4649;42.644;23.284;2023-07-16T16:38:53;7.95;;;7.28;;
9228;SDS011;4649;42.644;23.284;2023-07-16T16:41:21;8.55;;;7.90;;
9228;SDS011;4649;42.644;23.284;2023-07-16T16:43:50;8.57;;;7.97;;
9228;SDS011;4649;42.644;23.284;2023-07-16T16:46:25;10.45;;;9.65;;
9228;SDS011;4649;42.644;23.284;2023-07-16T16:48:52;8.27;;;7.80;;
9228;SDS011;4649;42.644;23.284;2023-07-16T16:51:30;8.05;;;7.35;;
9228;SDS011;4649;42.644;23.284;2023-07-16T16:53:59;9.30;;;8.40;;
9228;SDS011;4649;42.644;23.284;2023-07-16T16:56:42;8.60;;;8.00;;
9228;SDS011;4649;42.644;23.284;2023-07-16T16:59:09;8.60;;;7.78;;
9228;SDS011;4649;42.644;23.284;2023-07-16T17:01:37;8.88;;;7.93;;
9228;SDS011;4649;42.644;23.284;2023-07-16T17:04:52;8.75;;;8.15;;
9228;SDS011;4649;42.644;23.284;2023-07-16T17:07:35;7.85;;;7.35;;
9228;SDS011;4649;42.644;23.284;2023-07-16T17:10:41;9.85;;;9.05;;
9228;SDS011;4649;42.644;23.284;2023-07-16T17:16:15;10.85;;;9.82;;
9228;SDS011;4649;42.644;23.284;2023-07-16T17:18:47;10.68;;;8.25;;
9228;SDS011;4649;42.644;23.284;2023-07-16T17:21:19;9.20;;;8.38;;
9228;SDS011;4649;42.644;23.284;2023-07-16T17:24:19;9.48;;;8.57;;
9228;SDS011;4649;42.644;23.284;2023-07-16T17:26:53;10.73;;;8.98;;
9228;SDS011;4649;42.644;23.284;2023-07-16T17:29:21;9.48;;;8.27;;
9228;SDS011;4649;42.644;23.284;2023-07-16T17:31:56;9.33;;;8.47;;
9228;SDS011;4649;42.644;23.284;2023-07-16T17:34:27;11.57;;;8.07;;
9228;SDS011;4649;42.644;23.284;2023-07-16T17:37:09;9.17;;;8.47;;
9228;SDS011;4649;42.644;23.284;2023-07-16T17:39:37;9.40;;;8.90;;
9228;SDS011;4649;42.644;23.284;2023-07-16T18:56:30;7.40;;;6.70;;
9228;SDS011;4649;42.644;23.284;2023-07-16T18:59:16;7.70;;;6.90;;
9228;SDS011;4649;42.644;23.284;2023-07-16T19:04:44;9.10;;;7.97;;
9228;SDS011;4649;42.644;23.284;2023-07-16T19:07:45;7.43;;;6.73;;
9228;SDS011;4649;42.644;23.284;2023-07-16T19:10:29;12.57;;;7.23;;
9228;SDS011;4649;42.644;23.284;2023-07-16T19:19:05;7.50;;;6.90;;
9228;SDS011;4649;42.644;23.284;2023-07-16T19:21:32;7.83;;;7.10;;
9228;SDS011;4649;42.644;23.284;2023-07-16T19:23:59;7.90;;;7.30;;
9228;SDS011;4649;42.644;23.284;2023-07-16T19:26:26;13.43;;;7.20;;
9228;SDS011;4649;42.644;23.284;2023-07-16T19:28:54;8.63;;;7.10;;
9228;SDS011;4649;42.644;23.284;2023-07-16T19:31:21;8.00;;;7.30;;
9228;SDS011;4649;42.644;23.284;2023-07-16T19:33:50;7.17;;;6.77;;
9228;SDS011;4649;42.644;23.284;2023-07-16T19:36:18;13.70;;;7.53;;
9228;SDS011;4649;42.644;23.284;2023-07-16T19:38:45;7.70;;;6.97;;
9228;SDS011;4649;42.644;23.284;2023-07-16T19:41:12;7.63;;;6.97;;
9228;SDS011;4649;42.644;23.284;2023-07-16T19:43:40;7.77;;;7.17;;
9228;SDS011;4649;42.644;23.284;2023-07-16T19:46:07;8.83;;;7.30;;
9228;SDS011;4649;42.644;23.284;2023-07-16T19:48:34;7.83;;;7.37;;
9228;SDS011;4649;42.644;23.284;2023-07-16T19:51:03;7.77;;;6.97;;
9228;SDS011;4649;42.644;23.284;2023-07-16T19:53:30;12.10;;;7.57;;
9228;SDS011;4649;42.644;23.284;2023-07-16T19:55:57;10.47;;;7.10;;
9228;SDS011;4649;42.644;23.284;2023-07-16T19:58:25;8.07;;;7.50;;
9228;SDS011;4649;42.644;23.284;2023-07-16T20:00:52;7.30;;;6.83;;
9228;SDS011;4649;42.644;23.284;2023-07-16T20:03:19;7.83;;;7.33;;
9228;SDS011;4649;42.644;23.284;2023-07-16T20:05:47;7.93;;;7.33;;
9228;SDS011;4649;42.644;23.284;2023-07-16T20:08:16;7.90;;;7.30;;
9228;SDS011;4649;42.644;23.284;2023-07-16T20:10:44;7.37;;;6.87;;
9228;SDS011;4649;42.644;23.284;2023-07-16T20:13:12;7.90;;;7.20;;
9228;SDS011;4649;42.644;23.284;2023-07-16T20:15:39;7.50;;;7.17;;
9228;SDS011;4649;42.644;23.284;2023-07-16T20:18:10;8.17;;;7.43;;
9228;SDS011;4649;42.644;23.284;2023-07-16T20:20:39;8.17;;;7.13;;
9228;SDS011;4649;42.644;23.284;2023-07-16T20:23:07;7.60;;;6.80;;
9228;SDS011;4649;42.644;23.284;2023-07-16T20:25:36;7.70;;;6.90;;
9228;SDS011;4649;42.644;23.284;2023-07-16T20:28:05;7.23;;;6.83;;
9228;SDS011;4649;42.644;23.284;2023-07-16T20:30:39;7.73;;;7.17;;
9228;SDS011;4649;42.644;23.284;2023-07-16T20:33:06;8.83;;;6.97;;
9228;SDS011;4649;42.644;23.284;2023-07-16T20:35:33;7.60;;;7.00;;
9228;SDS011;4649;42.644;23.284;2023-07-16T20:38:00;7.60;;;7.10;;
9228;SDS011;4649;42.644;23.284;2023-07-16T20:40:28;7.30;;;6.77;;
9228;SDS011;4649;42.644;23.284;2023-07-16T20:42:57;8.10;;;7.57;;
9228;SDS011;4649;42.644;23.284;2023-07-16T20:45:25;8.27;;;7.70;;
9228;SDS011;4649;42.644;23.284;2023-07-16T20:47:53;8.27;;;7.47;;
9228;SDS011;4649;42.644;23.284;2023-07-16T20:50:21;8.00;;;7.23;;
9228;SDS011;4649;42.644;23.284;2023-07-16T20:52:50;8.07;;;7.40;;
9228;SDS011;4649;42.644;23.284;2023-07-16T20:55:19;8.00;;;7.20;;
9228;SDS011;4649;42.644;23.284;2023-07-16T20:57:48;9.67;;;7.73;;
9228;SDS011;4649;42.644;23.284;2023-07-16T21:00:18;7.87;;;7.20;;
9228;SDS011;4649;42.644;23.284;2023-07-16T21:02:46;9.60;;;7.93;;
9228;SDS011;4649;42.644;23.284;2023-07-16T21:05:14;12.10;;;11.00;;
9228;SDS011;4649;42.644;23.284;2023-07-16T21:07:42;8.60;;;7.87;;
9228;SDS011;4649;42.644;23.284;2023-07-16T21:10:10;8.47;;;7.70;;
9228;SDS011;4649;42.644;23.284;2023-07-16T21:12:37;8.57;;;8.07;;
9228;SDS011;4649;42.644;23.284;2023-07-16T21:15:08;8.93;;;8.43;;
9228;SDS011;4649;42.644;23.284;2023-07-16T21:17:39;7.73;;;7.20;;
9228;SDS011;4649;42.644;23.284;2023-07-16T21:20:06;9.13;;;8.33;;
9228;SDS011;4649;42.644;23.284;2023-07-16T21:22:34;8.70;;;8.00;;
9228;SDS011;4649;42.644;23.284;2023-07-16T21:25:03;10.43;;;7.40;;
9228;SDS011;4649;42.644;23.284;2023-07-16T21:27:31;11.47;;;7.70;;
9228;SDS011;4649;42.644;23.284;2023-07-16T21:30:05;8.57;;;7.70;;
9228;SDS011;4649;42.644;23.284;2023-07-16T21:32:33;10.07;;;8.17;;
9228;SDS011;4649;42.644;23.284;2023-07-16T21:35:01;9.20;;;8.47;;
9228;SDS011;4649;42.644;23.284;2023-07-16T21:37:28;8.33;;;7.77;;
9228;SDS011;4649;42.644;23.284;2023-07-16T21:39:55;8.10;;;7.53;;
9228;SDS011;4649;42.644;23.284;2023-07-16T21:42:22;9.60;;;8.70;;
9228;SDS011;4649;42.644;23.284;2023-07-16T21:44:50;8.77;;;8.10;;
9228;SDS011;4649;42.644;23.284;2023-07-16T21:47:18;8.80;;;8.17;;
9228;SDS011;4649;42.644;23.284;2023-07-16T21:49:45;8.60;;;8.07;;
9228;SDS011;4649;42.644;23.284;2023-07-16T21:52:14;9.27;;;8.67;;
9228;SDS011;4649;42.644;23.284;2023-07-16T21:54:42;9.27;;;8.57;;
9228;SDS011;4649;42.644;23.284;2023-07-16T21:57:09;9.50;;;8.97;;
9228;SDS011;4649;42.644;23.284;2023-07-16T21:59:36;10.13;;;9.43;;
9228;SDS011;4649;42.644;23.284;2023-07-16T22:02:03;10.10;;;9.23;;
9228;SDS011;4649;42.644;23.284;2023-07-16T22:04:31;9.77;;;8.80;;
9228;SDS011;4649;42.644;23.284;2023-07-16T22:06:58;10.40;;;8.70;;
9228;SDS011;4649;42.644;23.284;2023-07-16T22:09:27;12.30;;;9.33;;
9228;SDS011;4649;42.644;23.284;2023-07-16T22:11:55;9.87;;;9.10;;
9228;SDS011;4649;42.644;23.284;2023-07-16T22:14:22;9.97;;;9.13;;
9228;SDS011;4649;42.644;23.284;2023-07-16T22:16:49;9.10;;;8.40;;
9228;SDS011;4649;42.644;23.284;2023-07-16T22:19:18;9.03;;;8.43;;
9228;SDS011;4649;42.644;23.284;2023-07-16T22:21:45;8.90;;;8.23;;
9228;SDS011;4649;42.644;23.284;2023-07-16T22:24:12;9.20;;;8.50;;
9228;SDS011;4649;42.644;23.284;2023-07-16T22:26:40;8.63;;;8.03;;
9228;SDS011;4649;42.644;23.284;2023-07-16T22:29:07;8.60;;;8.00;;
9228;SDS011;4649;42.644;23.284;2023-07-16T22:31:35;8.50;;;8.00;;
9228;SDS011;4649;42.644;23.284;2023-07-16T22:34:02;9.73;;;8.00;;
9228;SDS011;4649;42.644;23.284;2023-07-16T22:36:29;9.73;;;8.60;;
9228;SDS011;4649;42.644;23.284;2023-07-16T22:38:56;8.33;;;7.80;;
9228;SDS011;4649;42.644;23.284;2023-07-16T22:41:23;8.60;;;8.00;;
9228;SDS011;4649;42.644;23.284;2023-07-16T22:43:52;9.37;;;8.57;;
9228;SDS011;4649;42.644;23.284;2023-07-16T22:46:19;9.00;;;8.17;;
9228;SDS011;4649;42.644;23.284;2023-07-16T22:48:46;9.00;;;8.40;;
9228;SDS011;4649;42.644;23.284;2023-07-16T22:51:13;8.97;;;8.30;;
9228;SDS011;4649;42.644;23.284;2023-07-16T22:53:40;9.20;;;8.43;;
9228;SDS011;4649;42.644;23.284;2023-07-16T22:56:08;10.40;;;9.37;;
9228;SDS011;4649;42.644;23.284;2023-07-16T22:58:35;10.93;;;8.53;;
9228;SDS011;4649;42.644;23.284;2023-07-16T23:01:08;9.93;;;9.20;;
9228;SDS011;4649;42.644;23.284;2023-07-16T23:03:35;9.30;;;8.60;;
9228;SDS011;4649;42.644;23.284;2023-07-16T23:06:02;10.70;;;9.20;;
9228;SDS011;4649;42.644;23.284;2023-07-16T23:08:30;10.57;;;8.47;;
9228;SDS011;4649;42.644;23.284;2023-07-16T23:10:57;9.83;;;9.23;;
9228;SDS011;4649;42.644;23.284;2023-07-16T23:13:25;10.20;;;8.83;;
9228;SDS011;4649;42.644;23.284;2023-07-16T23:15:53;8.97;;;8.30;;
9228;SDS011;4649;42.644;23.284;2023-07-16T23:18:23;9.57;;;8.83;;
9228;SDS011;4649;42.644;23.284;2023-07-16T23:20:50;8.70;;;8.10;;
9228;SDS011;4649;42.644;23.284;2023-07-16T23:23:17;9.47;;;8.43;;
9228;SDS011;4649;42.644;23.284;2023-07-16T23:25:44;8.43;;;7.83;;
9228;SDS011;4649;42.644;23.284;2023-07-16T23:28:11;9.17;;;8.57;;
9228;SDS011;4649;42.644;23.284;2023-07-16T23:30:38;10.63;;;9.63;;
9228;SDS011;4649;42.644;23.284;2023-07-16T23:33:05;9.27;;;8.43;;
9228;SDS011;4649;42.644;23.284;2023-07-16T23:35:34;9.17;;;8.20;;
9228;SDS011;4649;42.644;23.284;2023-07-16T23:38:01;11.50;;;8.87;;
9228;SDS011;4649;42.644;23.284;2023-07-16T23:40:28;9.40;;;8.57;;
9228;SDS011;4649;42.644;23.284;2023-07-16T23:42:55;8.40;;;7.63;;
9228;SDS011;4649;42.644;23.284;2023-07-16T23:45:23;10.83;;;8.87;;
9228;SDS011;4649;42.644;23.284;2023-07-16T23:47:50;17.97;;;10.20;;
9228;SDS011;4649;42.644;23.284;2023-07-16T23:50:17;9.87;;;9.07;;
9228;SDS011;4649;42.644;23.284;2023-07-16T23:52:46;9.60;;;8.90;;
9228;SDS011;4649;42.644;23.284;2023-07-16T23:55:15;9.37;;;8.73;;
9228;SDS011;4649;42.644;23.284;2023-07-16T23:57:42;12.50;;;8.37;;
